createdAt,value
2022-09-22T00:00:11.770Z,80.63
2022-09-22T00:01:11.956Z,80.52
2022-09-22T00:02:11.811Z,80.59
2022-09-22T00:03:11.743Z,80.42
2022-09-22T00:04:11.728Z,80.32
2022-09-22T00:05:11.718Z,80.63
2022-09-22T00:06:11.722Z,80.93
2022-09-22T00:07:11.710Z,80.83
2022-09-22T00:08:11.680Z,80.83
2022-09-22T00:09:11.686Z,81.44
2022-09-22T00:10:11.680Z,80.83
2022-09-22T00:11:11.680Z,81.13
2022-09-22T00:12:11.639Z,81.74
2022-09-22T00:13:11.634Z,80.73
2022-09-22T00:14:11.618Z,80.42
2022-09-22T00:15:11.615Z,80.63
2022-09-22T00:16:11.661Z,80.52
2022-09-22T00:17:11.608Z,80.83
2022-09-22T00:18:11.578Z,81.13
2022-09-22T00:19:11.583Z,81.24
2022-09-22T00:20:11.564Z,81.74
2022-09-22T00:21:11.550Z,81.13
2022-09-22T00:22:11.568Z,81.13
2022-09-22T00:23:11.528Z,81.13
2022-09-22T00:24:11.511Z,81.13
2022-09-22T00:25:11.507Z,81.04
2022-09-22T00:26:11.510Z,81.07
2022-09-22T00:27:11.488Z,81.07
2022-09-22T00:28:11.481Z,81.07
2022-09-22T00:29:11.453Z,80.97
2022-09-22T00:30:11.449Z,81.48
2022-09-22T00:31:11.475Z,81.48
2022-09-22T00:32:11.449Z,81.48
2022-09-22T00:33:11.448Z,81.48
2022-09-22T00:34:11.399Z,81.58
2022-09-22T00:35:11.387Z,81.58
2022-09-22T00:36:11.377Z,81.72
2022-09-22T00:37:11.383Z,81.88
2022-09-22T00:38:11.357Z,81.72
2022-09-22T00:39:11.349Z,82.03
2022-09-22T00:40:11.429Z,82.13
2022-09-22T00:41:11.340Z,81.93
2022-09-22T00:42:11.335Z,82.03
2022-09-22T00:43:11.301Z,82.23
2022-09-22T00:44:11.302Z,81.72
2022-09-22T00:45:11.283Z,81.62
2022-09-22T00:46:11.294Z,82.23
2022-09-22T00:47:11.277Z,82.13
2022-09-22T00:48:11.265Z,82.33
2022-09-22T00:49:11.251Z,82.23
2022-09-22T00:50:11.232Z,82.74
2022-09-22T00:51:11.224Z,82.84
2022-09-22T00:52:11.206Z,82.88
2022-09-22T00:53:11.209Z,82.78
2022-09-22T00:54:11.183Z,82.57
2022-09-22T00:55:11.173Z,82.74
2022-09-22T00:56:11.171Z,82.68
2022-09-22T00:57:11.154Z,82.64
2022-09-22T00:58:11.187Z,82.68
2022-09-22T00:59:11.136Z,82.68
2022-09-22T01:00:11.128Z,82.88
2022-09-22T01:01:11.180Z,82.68
2022-09-22T01:02:11.189Z,82.68
2022-09-22T01:03:11.096Z,83.18
2022-09-22T01:04:11.098Z,83.29
2022-09-22T01:05:11.087Z,82.98
2022-09-22T01:06:11.058Z,83.29
2022-09-22T01:07:11.065Z,82.68
2022-09-22T01:08:11.046Z,82.98
2022-09-22T01:09:11.021Z,82.68
2022-09-22T01:10:11.011Z,83.18
2022-09-22T01:11:11.012Z,82.68
2022-09-22T01:12:10.997Z,82.92
2022-09-22T01:13:11.119Z,82.98
2022-09-22T01:14:10.994Z,83.09
2022-09-22T01:15:10.964Z,83.33
2022-09-22T01:16:20.169Z,83.09
2022-09-22T01:17:10.948Z,83.09
2022-09-22T01:18:10.926Z,83.09
2022-09-22T01:19:10.947Z,83.18
2022-09-22T01:20:10.920Z,82.92
2022-09-22T01:21:10.900Z,83.63
2022-09-22T01:22:10.882Z,83.53
2022-09-22T01:23:10.879Z,83.94
2022-09-22T01:24:10.867Z,83.94
2022-09-22T01:25:10.879Z,83.84
2022-09-22T01:26:10.848Z,83.84
2022-09-22T01:27:10.832Z,83.63
2022-09-22T01:28:10.862Z,83.84
2022-09-22T01:29:11.155Z,83.53
2022-09-22T01:30:10.824Z,83.84
2022-09-22T01:31:10.869Z,83.73
2022-09-22T01:32:10.785Z,83.63
2022-09-22T01:33:10.775Z,83.12
2022-09-22T01:34:10.752Z,83.43
2022-09-22T01:35:10.753Z,83.67
2022-09-22T01:36:10.731Z,83.63
2022-09-22T01:37:10.746Z,83.84
2022-09-22T01:38:10.722Z,83.73
2022-09-22T01:39:10.717Z,83.94
2022-09-22T01:40:10.742Z,83.87
2022-09-22T01:41:10.680Z,83.98
2022-09-22T01:42:10.681Z,84.08
2022-09-22T01:43:10.694Z,83.47
2022-09-22T01:44:11.621Z,83.57
2022-09-22T01:45:10.633Z,83.94
2022-09-22T01:46:10.733Z,83.98
2022-09-22T01:47:10.618Z,83.78
2022-09-22T01:48:10.630Z,84.18
2022-09-22T01:49:10.590Z,83.98
2022-09-22T01:50:10.588Z,84.04
2022-09-22T01:51:10.621Z,83.98
2022-09-22T01:52:10.564Z,84.14
2022-09-22T01:53:10.551Z,84.08
2022-09-22T01:54:11.159Z,84.08
2022-09-22T01:55:10.540Z,83.98
2022-09-22T01:56:10.515Z,83.87
2022-09-22T01:57:10.516Z,84.18
2022-09-22T01:58:10.515Z,83.87
2022-09-22T01:59:10.503Z,84.08
2022-09-22T02:00:10.483Z,84.49
2022-09-22T02:01:14.457Z,84.18
2022-09-22T02:02:10.603Z,84.28
2022-09-22T02:03:10.451Z,84.39
2022-09-22T02:04:10.437Z,84.28
2022-09-22T02:05:10.417Z,84.08
2022-09-22T02:06:10.410Z,84.18
2022-09-22T02:07:10.397Z,83.87
2022-09-22T02:08:10.396Z,84.18
2022-09-22T02:09:10.396Z,84.18
2022-09-22T02:10:10.374Z,83.67
2022-09-22T02:11:10.372Z,83.87
2022-09-22T02:12:10.343Z,83.87
2022-09-22T02:13:10.349Z,83.67
2022-09-22T02:14:10.322Z,83.57
2022-09-22T02:15:10.321Z,83.67
2022-09-22T02:16:10.357Z,83.67
2022-09-22T02:17:10.288Z,83.57
2022-09-22T02:18:10.303Z,83.87
2022-09-22T02:19:13.519Z,83.57
2022-09-22T02:20:10.293Z,83.87
2022-09-22T02:21:10.265Z,83.87
2022-09-22T02:22:10.233Z,83.87
2022-09-22T02:23:10.237Z,84.08
2022-09-22T02:24:10.250Z,83.87
2022-09-22T02:25:10.201Z,83.98
2022-09-22T02:26:10.193Z,84.08
2022-09-22T02:27:10.190Z,83.98
2022-09-22T02:28:10.176Z,84.18
2022-09-22T02:29:10.160Z,84.18
2022-09-22T02:30:10.168Z,84.18
2022-09-22T02:31:19.949Z,83.87
2022-09-22T02:32:11.189Z,83.98
2022-09-22T02:33:10.125Z,83.87
2022-09-22T02:34:10.135Z,84.33
2022-09-22T02:35:10.118Z,84.28
2022-09-22T02:36:10.092Z,84.39
2022-09-22T02:37:10.088Z,83.78
2022-09-22T02:38:10.107Z,84.01
2022-09-22T02:39:10.064Z,84.08
2022-09-22T02:40:10.151Z,84.12
2022-09-22T02:41:10.033Z,84.33
2022-09-22T02:42:10.050Z,83.71
2022-09-22T02:43:10.017Z,84.01
2022-09-22T02:44:09.995Z,84.42
2022-09-22T02:45:09.994Z,84.33
2022-09-22T02:46:10.058Z,83.81
2022-09-22T02:47:09.980Z,84.12
2022-09-22T02:48:09.958Z,84.42
2022-09-22T02:49:09.950Z,84.12
2022-09-22T02:50:09.956Z,83.92
2022-09-22T02:51:09.941Z,84.42
2022-09-22T02:52:09.920Z,84.12
2022-09-22T02:53:09.900Z,84.22
2022-09-22T02:54:09.897Z,84.42
2022-09-22T02:55:09.898Z,84.33
2022-09-22T02:56:09.875Z,84.42
2022-09-22T02:57:09.887Z,84.06
2022-09-22T02:58:09.852Z,84.06
2022-09-22T02:59:10.054Z,84.57
2022-09-22T03:00:09.831Z,84.12
2022-09-22T03:01:09.879Z,84.74
2022-09-22T03:02:09.810Z,84.26
2022-09-22T03:03:09.824Z,84.74
2022-09-22T03:04:09.785Z,84.98
2022-09-22T03:05:09.865Z,84.83
2022-09-22T03:06:09.789Z,84.36
2022-09-22T03:07:09.755Z,84.57
2022-09-22T03:08:09.735Z,85.08
2022-09-22T03:09:09.742Z,85.08
2022-09-22T03:10:09.718Z,85.28
2022-09-22T03:11:09.704Z,85.38
2022-09-22T03:12:09.785Z,84.88
2022-09-22T03:13:16.447Z,85.08
2022-09-22T03:14:10.711Z,85.28
2022-09-22T03:15:09.669Z,84.47
2022-09-22T03:16:09.677Z,84.26
2022-09-22T03:17:09.649Z,85.28
2022-09-22T03:18:09.638Z,85.32
2022-09-22T03:19:09.633Z,85.18
2022-09-22T03:20:09.613Z,85.18
2022-09-22T03:21:09.600Z,84.81
2022-09-22T03:22:09.619Z,84.67
2022-09-22T03:23:09.581Z,85.28
2022-09-22T03:24:09.575Z,85.08
2022-09-22T03:25:09.569Z,84.98
2022-09-22T03:26:09.564Z,84.98
2022-09-22T03:27:09.542Z,85.18
2022-09-22T03:28:09.530Z,84.26
2022-09-22T03:29:09.520Z,84.36
2022-09-22T03:30:09.533Z,85.08
2022-09-22T03:31:09.598Z,85.18
2022-09-22T03:32:09.498Z,85.08
2022-09-22T03:33:09.676Z,85.38
2022-09-22T03:34:09.456Z,85.12
2022-09-22T03:35:09.447Z,85.38
2022-09-22T03:36:09.453Z,85.18
2022-09-22T03:37:09.426Z,84.67
2022-09-22T03:38:09.436Z,84.47
2022-09-22T03:39:09.420Z,84.57
2022-09-22T03:40:09.459Z,84.91
2022-09-22T03:41:09.396Z,85.08
2022-09-22T03:42:09.383Z,84.36
2022-09-22T03:43:14.394Z,84.41
2022-09-22T03:44:10.348Z,84.30
2022-09-22T03:45:09.348Z,84.36
2022-09-22T03:46:09.528Z,84.50
2022-09-22T03:47:09.318Z,84.50
2022-09-22T03:48:09.354Z,84.30
2022-09-22T03:49:09.292Z,84.91
2022-09-22T03:50:09.287Z,84.71
2022-09-22T03:51:09.281Z,84.50
2022-09-22T03:52:09.280Z,85.12
2022-09-22T03:53:09.274Z,85.22
2022-09-22T03:54:09.265Z,85.22
2022-09-22T03:55:09.243Z,84.50
2022-09-22T03:56:09.218Z,84.09
2022-09-22T03:57:09.207Z,85.02
2022-09-22T03:58:09.210Z,85.22
2022-09-22T03:59:09.217Z,85.32
2022-09-22T04:00:09.177Z,85.22
2022-09-22T04:01:09.233Z,85.22
2022-09-22T04:02:09.216Z,84.91
2022-09-22T04:03:09.150Z,85.02
2022-09-22T04:04:09.138Z,84.81
2022-09-22T04:05:09.147Z,84.71
2022-09-22T04:06:09.110Z,85.22
2022-09-22T04:07:09.666Z,85.12
2022-09-22T04:08:09.101Z,85.22
2022-09-22T04:09:09.079Z,85.22
2022-09-22T04:10:09.101Z,85.32
2022-09-22T04:11:09.061Z,85.42
2022-09-22T04:12:09.057Z,85.22
2022-09-22T04:13:09.043Z,85.22
2022-09-22T04:14:10.124Z,84.71
2022-09-22T04:15:09.672Z,85.16
2022-09-22T04:16:09.022Z,85.16
2022-09-22T04:17:09.008Z,85.36
2022-09-22T04:18:08.981Z,85.26
2022-09-22T04:20:10.568Z,85.36
2022-09-22T04:21:10.574Z,85.26
2022-09-22T04:22:10.547Z,84.91
2022-09-22T04:23:10.539Z,85.16
2022-09-22T04:24:10.526Z,84.95
2022-09-22T04:25:10.527Z,85.02
2022-09-22T04:26:10.518Z,84.95
2022-09-22T04:27:25.427Z,85.06
2022-09-22T04:28:11.475Z,84.91
2022-09-22T04:29:10.472Z,85.12
2022-09-22T04:30:10.487Z,84.95
2022-09-22T04:31:10.508Z,85.16
2022-09-22T04:32:12.270Z,85.02
2022-09-22T04:33:10.421Z,85.47
2022-09-22T04:34:10.414Z,85.42
2022-09-22T04:35:10.405Z,84.91
2022-09-22T04:36:10.393Z,85.36
2022-09-22T04:37:10.386Z,84.81
2022-09-22T04:38:10.388Z,84.81
2022-09-22T04:39:10.364Z,85.06
2022-09-22T04:40:10.365Z,84.71
2022-09-22T04:41:10.344Z,85.16
2022-09-22T04:42:10.360Z,85.16
2022-09-22T04:43:10.320Z,84.95
2022-09-22T04:44:10.313Z,85.12
2022-09-22T04:45:10.301Z,85.12
2022-09-22T04:46:10.310Z,85.02
2022-09-22T04:47:10.290Z,84.95
2022-09-22T04:48:10.257Z,85.16
2022-09-22T04:49:10.261Z,85.12
2022-09-22T04:50:10.240Z,85.16
2022-09-22T04:51:10.229Z,84.75
2022-09-22T04:52:10.224Z,85.06
2022-09-22T04:53:10.225Z,84.75
2022-09-22T04:54:10.191Z,85.06
2022-09-22T04:55:10.201Z,84.95
2022-09-22T04:56:10.177Z,85.16
2022-09-22T04:57:10.157Z,85.06
2022-09-22T04:58:10.163Z,84.95
2022-09-22T04:59:10.173Z,84.95
2022-09-22T05:00:10.134Z,84.95
2022-09-22T05:01:10.186Z,84.95
2022-09-22T05:02:10.105Z,85.06
2022-09-22T05:03:10.251Z,84.85
2022-09-22T05:04:10.230Z,84.75
2022-09-22T05:05:10.077Z,85.06
2022-09-22T05:06:10.065Z,84.95
2022-09-22T05:07:10.049Z,85.06
2022-09-22T05:08:10.047Z,84.85
2022-09-22T05:09:10.030Z,85.06
2022-09-22T05:10:10.029Z,85.06
2022-09-22T05:11:10.024Z,84.95
2022-09-22T05:12:10.006Z,85.06
2022-09-22T05:13:09.988Z,85.06
2022-09-22T05:14:09.986Z,84.85
2022-09-22T05:15:09.981Z,84.75
2022-09-22T05:16:09.983Z,85.36
2022-09-22T05:17:09.964Z,84.75
2022-09-22T05:18:09.937Z,84.95
2022-09-22T05:19:09.941Z,84.55
2022-09-22T05:20:09.915Z,84.55
2022-09-22T05:21:09.920Z,84.65
2022-09-22T05:22:09.892Z,84.95
2022-09-22T05:23:09.871Z,84.95
2022-09-22T05:24:09.878Z,85.16
2022-09-22T05:25:09.855Z,84.55
2022-09-22T05:26:09.868Z,84.65
2022-09-22T05:27:09.837Z,85.26
2022-09-22T05:28:09.831Z,85.26
2022-09-22T05:29:09.818Z,85.36
2022-09-22T05:30:09.820Z,85.26
2022-09-22T05:31:09.797Z,85.26
2022-09-22T05:32:09.866Z,85.26
2022-09-22T05:33:09.765Z,84.95
2022-09-22T05:34:09.765Z,84.75
2022-09-22T05:35:09.787Z,85.26
2022-09-22T05:36:09.733Z,84.75
2022-09-22T05:37:09.733Z,85.02
2022-09-22T05:38:09.713Z,85.22
2022-09-22T05:39:09.706Z,84.81
2022-09-22T05:40:09.729Z,84.09
2022-09-22T05:41:09.701Z,84.50
2022-09-22T05:42:11.121Z,84.34
2022-09-22T05:43:09.663Z,84.30
2022-09-22T05:44:09.647Z,84.41
2022-09-22T05:45:09.633Z,84.41
2022-09-22T05:46:09.735Z,84.41
2022-09-22T05:47:09.624Z,84.30
2022-09-22T05:48:09.632Z,84.50
2022-09-22T05:49:09.592Z,84.50
2022-09-22T05:50:09.583Z,84.30
2022-09-22T05:51:09.577Z,84.41
2022-09-22T05:52:09.573Z,84.50
2022-09-22T05:53:09.551Z,84.50
2022-09-22T05:54:09.553Z,84.50
2022-09-22T05:55:09.535Z,84.09
2022-09-22T05:56:09.523Z,83.79
2022-09-22T05:57:09.509Z,83.79
2022-09-22T05:58:09.494Z,84.71
2022-09-22T05:59:09.510Z,84.61
2022-09-22T06:00:09.472Z,85.12
2022-09-22T06:01:09.560Z,84.98
2022-09-22T06:02:25.163Z,85.22
2022-09-22T06:03:10.560Z,84.91
2022-09-22T06:04:09.429Z,85.22
2022-09-22T06:05:09.429Z,85.69
2022-09-22T06:06:09.405Z,86.82
2022-09-22T06:07:09.406Z,87.23
2022-09-22T06:08:09.385Z,87.32
2022-09-22T06:09:09.380Z,87.53
2022-09-22T06:10:09.378Z,87.79
2022-09-22T06:11:09.357Z,87.04
2022-09-22T06:12:09.339Z,86.83
2022-09-22T06:13:09.339Z,86.94
2022-09-22T06:14:09.322Z,86.90
2022-09-22T06:15:09.322Z,86.49
2022-09-22T06:16:09.421Z,85.16
2022-09-22T06:17:09.294Z,85.68
2022-09-22T06:18:14.626Z,84.96
2022-09-22T06:19:10.273Z,85.06
2022-09-22T06:20:09.257Z,84.92
2022-09-22T06:21:09.258Z,85.06
2022-09-22T06:22:09.230Z,84.51
2022-09-22T06:23:09.220Z,84.75
2022-09-22T06:24:09.214Z,84.31
2022-09-22T06:25:09.272Z,83.80
2022-09-22T06:26:09.195Z,84.11
2022-09-22T06:27:09.202Z,84.20
2022-09-22T06:28:09.189Z,84.20
2022-09-22T06:29:09.172Z,83.86
2022-09-22T06:30:09.143Z,83.76
2022-09-22T06:31:09.132Z,83.45
2022-09-22T06:32:09.216Z,82.88
2022-09-22T06:33:09.124Z,82.47
2022-09-22T06:34:09.116Z,82.37
2022-09-22T06:35:09.088Z,82.78
2022-09-22T06:36:09.087Z,82.88
2022-09-22T06:37:09.083Z,82.88
2022-09-22T06:38:09.084Z,82.88
2022-09-22T06:39:09.056Z,82.88
2022-09-22T06:40:11.098Z,82.37
2022-09-22T06:41:10.025Z,82.78
2022-09-22T06:42:09.020Z,82.33
2022-09-22T06:43:09.011Z,82.68
2022-09-22T06:44:09.156Z,82.27
2022-09-22T06:45:08.985Z,82.64
2022-09-22T06:46:09.045Z,82.57
2022-09-22T06:47:08.957Z,82.64
2022-09-22T06:48:10.435Z,82.23
2022-09-22T06:49:08.947Z,82.54
2022-09-22T06:50:08.949Z,82.54
2022-09-22T06:51:11.844Z,82.33
2022-09-22T06:52:08.920Z,82.84
2022-09-22T06:53:08.981Z,82.94
2022-09-22T06:54:08.920Z,82.03
2022-09-22T06:55:08.888Z,82.33
2022-09-22T06:56:08.858Z,82.13
2022-09-22T06:57:08.872Z,82.23
2022-09-22T06:58:09.003Z,82.19
2022-09-22T06:59:10.470Z,81.99
2022-09-22T07:00:08.839Z,81.38
2022-09-22T07:01:09.959Z,81.48
2022-09-22T07:02:08.908Z,81.48
2022-09-22T07:03:09.097Z,81.07
2022-09-22T07:04:08.774Z,81.48
2022-09-22T07:05:08.789Z,80.52
2022-09-22T07:06:08.765Z,80.46
2022-09-22T07:07:08.752Z,79.91
2022-09-22T07:08:08.938Z,80.32
2022-09-22T07:09:08.725Z,80.52
2022-09-22T07:10:08.716Z,80.32
2022-09-22T07:11:08.715Z,80.11
2022-09-22T07:12:08.697Z,80.22
2022-09-22T07:13:08.692Z,80.18
2022-09-22T07:14:08.931Z,79.41
2022-09-22T07:15:08.662Z,79.27
2022-09-22T07:16:08.689Z,78.45
2022-09-22T07:17:08.630Z,78.76
2022-09-22T07:18:08.630Z,79.16
2022-09-22T07:19:08.630Z,79.37
2022-09-22T07:20:08.598Z,79.13
2022-09-22T07:21:08.609Z,79.13
2022-09-22T07:22:08.630Z,77.91
2022-09-22T07:23:08.636Z,77.91
2022-09-22T07:24:08.564Z,78.52
2022-09-22T07:25:08.544Z,77.40
2022-09-22T07:26:08.546Z,77.40
2022-09-22T07:27:08.529Z,77.91
2022-09-22T07:28:08.541Z,77.67
2022-09-22T07:29:08.700Z,76.75
2022-09-22T07:30:08.494Z,76.86
2022-09-22T07:31:08.522Z,76.04
2022-09-22T07:32:08.525Z,76.25
2022-09-22T07:33:08.463Z,76.75
2022-09-22T07:34:08.460Z,76.41
2022-09-22T07:35:08.440Z,76.72
2022-09-22T07:36:08.429Z,74.62
2022-09-22T07:37:08.433Z,75.02
2022-09-22T07:38:08.476Z,75.09
2022-09-22T07:39:08.406Z,75.90
2022-09-22T07:40:08.461Z,76.21
2022-09-22T07:41:08.374Z,75.60
2022-09-22T07:42:08.377Z,74.88
2022-09-22T07:43:08.346Z,74.68
2022-09-22T07:44:08.414Z,74.88
2022-09-22T07:45:08.330Z,75.40
2022-09-22T07:46:08.317Z,75.70
2022-09-22T07:47:08.300Z,74.65
2022-09-22T07:48:08.388Z,74.65
2022-09-22T07:49:08.279Z,75.16
2022-09-22T07:50:08.298Z,74.92
2022-09-22T07:51:11.679Z,75.22
2022-09-22T07:52:09.266Z,75.22
2022-09-22T07:53:08.235Z,74.82
2022-09-22T07:54:08.265Z,75.02
2022-09-22T07:55:08.227Z,73.87
2022-09-22T07:56:08.227Z,73.97
2022-09-22T07:57:08.201Z,73.36
2022-09-22T07:58:08.311Z,72.65
2022-09-22T07:59:08.257Z,73.36
2022-09-22T08:00:08.218Z,73.57
2022-09-22T08:01:08.271Z,73.66
2022-09-22T08:02:08.183Z,73.36
2022-09-22T08:03:08.142Z,73.73
2022-09-22T08:04:08.118Z,72.92
2022-09-22T08:05:08.105Z,73.49
2022-09-22T08:06:08.102Z,72.58
2022-09-22T08:07:08.101Z,73.09
2022-09-22T08:08:08.098Z,73.29
2022-09-22T08:09:08.060Z,72.38
2022-09-22T08:10:08.155Z,73.36
2022-09-22T08:11:08.048Z,72.45
2022-09-22T08:12:08.057Z,71.94
2022-09-22T08:13:08.035Z,72.14
2022-09-22T08:14:08.147Z,72.55
2022-09-22T08:15:08.023Z,71.80
2022-09-22T08:16:08.072Z,71.09
2022-09-22T08:17:07.971Z,71.09
2022-09-22T08:18:08.029Z,71.20
2022-09-22T08:19:07.957Z,70.59
2022-09-22T08:20:07.941Z,70.08
2022-09-22T08:21:07.926Z,70.05
2022-09-22T08:22:07.943Z,69.85
2022-09-22T08:23:07.916Z,68.33
2022-09-22T08:24:07.892Z,68.97
2022-09-22T08:25:07.881Z,68.97
2022-09-22T08:26:07.890Z,69.04
2022-09-22T08:27:07.898Z,68.87
2022-09-22T08:28:07.846Z,69.04
2022-09-22T08:29:07.935Z,68.94
2022-09-22T08:30:07.829Z,68.23
2022-09-22T08:31:07.955Z,68.84
2022-09-22T08:32:07.815Z,67.89
2022-09-22T08:33:07.804Z,67.89
2022-09-22T08:34:07.809Z,67.66
2022-09-22T08:35:07.804Z,66.75
2022-09-22T08:36:07.776Z,66.11
2022-09-22T08:37:07.756Z,66.21
2022-09-22T08:38:12.622Z,65.27
2022-09-22T08:39:08.752Z,64.36
2022-09-22T08:40:07.770Z,63.96
2022-09-22T08:41:07.716Z,64.84
2022-09-22T08:42:07.847Z,64.43
2022-09-22T08:43:07.700Z,63.39
2022-09-22T08:44:07.684Z,64.20
2022-09-22T08:45:07.687Z,63.56
2022-09-22T08:46:07.717Z,63.64
2022-09-22T08:47:07.649Z,61.82
2022-09-22T08:48:07.635Z,59.55
2022-09-22T08:49:07.626Z,58.68
2022-09-22T08:50:07.635Z,53.34
2022-09-22T08:51:07.617Z,52.19
2022-09-22T08:52:07.593Z,49.15
2022-09-22T08:53:07.584Z,47.03
2022-09-22T08:54:07.637Z,44.12
2022-09-22T08:55:07.579Z,42.33
2022-09-22T08:56:07.543Z,40.94
2022-09-22T08:57:07.534Z,38.10
2022-09-22T08:58:07.555Z,36.36
2022-09-22T08:59:07.528Z,36.51
2022-09-22T09:00:07.671Z,36.07
2022-09-22T09:01:07.515Z,34.54
2022-09-22T09:02:07.521Z,33.61
2022-09-22T09:03:07.514Z,32.68
2022-09-22T09:04:07.519Z,31.10
2022-09-22T09:05:07.454Z,30.48
2022-09-22T09:06:07.458Z,30.66
2022-09-22T09:07:07.449Z,30.13
2022-09-22T09:08:07.420Z,29.04
2022-09-22T09:09:07.412Z,29.22
2022-09-22T09:10:07.419Z,28.93
2022-09-22T09:11:07.384Z,28.72
2022-09-22T09:12:07.385Z,28.90
2022-09-22T09:13:07.378Z,29.10
2022-09-22T09:14:07.428Z,28.89
2022-09-22T09:15:07.360Z,27.80
2022-09-22T09:16:07.382Z,26.71
2022-09-22T09:17:08.031Z,26.79
2022-09-22T09:18:07.314Z,26.49
2022-09-22T09:19:07.307Z,26.48
2022-09-22T09:20:07.305Z,26.75
2022-09-22T09:21:07.285Z,26.27
2022-09-22T09:22:07.285Z,26.17
2022-09-22T09:23:07.282Z,25.78
2022-09-22T09:25:24.879Z,25.49
2022-09-22T09:26:08.234Z,25.59
2022-09-22T09:27:07.236Z,25.78
2022-09-22T09:28:07.251Z,25.59
2022-09-22T09:29:07.509Z,25.48
2022-09-22T09:30:07.227Z,24.61
2022-09-22T09:31:07.241Z,25.01
2022-09-22T09:32:07.184Z,25.40
2022-09-22T09:33:07.168Z,26.31
2022-09-22T09:34:07.187Z,27.86
2022-09-22T09:35:07.162Z,28.99
2022-09-22T09:36:07.221Z,28.38
2022-09-22T09:37:07.132Z,28.25
2022-09-22T09:38:07.124Z,27.55
2022-09-22T09:39:07.122Z,27.61
2022-09-22T09:40:07.181Z,27.00
2022-09-22T09:41:07.125Z,25.68
2022-09-22T09:42:07.086Z,27.37
2022-09-22T09:43:07.078Z,28.85
2022-09-22T09:44:07.069Z,30.70
2022-09-22T09:45:07.057Z,31.95
2022-09-22T09:46:07.180Z,33.91
2022-09-22T09:47:07.062Z,34.86
2022-09-22T09:48:07.027Z,35.49
2022-09-22T09:49:07.029Z,35.14
2022-09-22T09:50:07.013Z,33.46
2022-09-22T09:51:07.005Z,31.33
2022-09-22T09:52:06.996Z,30.78
2022-09-22T09:53:08.725Z,29.87
2022-09-22T09:54:07.125Z,29.45
2022-09-22T09:55:06.960Z,29.61
2022-09-22T09:56:06.953Z,29.10
2022-09-22T09:57:06.943Z,29.30
2022-09-22T09:58:06.938Z,29.73
2022-09-22T09:59:07.034Z,29.59
2022-09-22T10:00:06.916Z,30.95
2022-09-22T10:01:06.911Z,33.00
2022-09-22T10:02:06.907Z,33.51
2022-09-22T10:03:06.881Z,34.74
2022-09-22T10:04:06.888Z,35.78
2022-09-22T10:05:06.864Z,36.11
2022-09-22T10:06:06.852Z,37.73
2022-09-22T10:07:06.842Z,37.95
2022-09-22T10:08:06.837Z,38.46
2022-09-22T10:09:06.913Z,38.48
2022-09-22T10:10:06.823Z,38.52
2022-09-22T10:11:06.797Z,40.33
2022-09-22T10:12:06.794Z,40.33
2022-09-22T10:13:06.784Z,40.34
2022-09-22T10:14:06.791Z,41.16
2022-09-22T10:15:06.767Z,40.86
2022-09-22T10:16:06.850Z,41.28
2022-09-22T10:17:06.760Z,41.99
2022-09-22T10:18:06.758Z,41.20
2022-09-22T10:19:06.738Z,41.50
2022-09-22T10:20:06.709Z,41.71
2022-09-22T10:21:06.689Z,41.22
2022-09-22T10:22:06.692Z,41.74
2022-09-22T10:23:06.712Z,42.23
2022-09-22T10:24:06.841Z,42.35
2022-09-22T10:25:06.654Z,42.23
2022-09-22T10:26:06.641Z,41.83
2022-09-22T10:27:07.440Z,42.13
2022-09-22T10:28:06.640Z,42.23
2022-09-22T10:29:06.613Z,42.03
2022-09-22T10:30:06.616Z,38.95
2022-09-22T10:31:06.665Z,40.76
2022-09-22T10:32:06.584Z,40.86
2022-09-22T10:33:06.580Z,40.46
2022-09-22T10:34:06.602Z,40.84
2022-09-22T10:35:06.585Z,40.84
2022-09-22T10:36:09.396Z,40.82
2022-09-22T10:37:07.528Z,40.22
2022-09-22T10:38:06.510Z,40.82
2022-09-22T10:39:06.501Z,40.62
2022-09-22T10:40:06.536Z,41.20
2022-09-22T10:41:06.494Z,41.39
2022-09-22T10:42:06.502Z,41.42
2022-09-22T10:43:06.468Z,41.61
2022-09-22T10:44:21.293Z,41.42
2022-09-22T10:45:07.443Z,41.36
2022-09-22T10:46:06.525Z,42.97
2022-09-22T10:47:06.425Z,42.79
2022-09-22T10:48:06.462Z,42.93
2022-09-22T10:49:06.475Z,42.83
2022-09-22T10:50:06.404Z,43.55
2022-09-22T10:51:06.370Z,44.97
2022-09-22T10:52:06.374Z,43.87
2022-09-22T10:53:06.370Z,45.29
2022-09-22T10:54:06.354Z,45.31
2022-09-22T10:55:06.327Z,45.62
2022-09-22T10:56:06.323Z,46.01
2022-09-22T10:57:06.305Z,45.09
2022-09-22T10:58:06.310Z,45.20
2022-09-22T10:59:06.298Z,45.20
2022-09-22T11:00:06.276Z,45.29
2022-09-22T11:01:06.340Z,45.31
2022-09-22T11:02:06.251Z,46.81
2022-09-22T11:03:06.242Z,46.44
2022-09-22T11:04:06.484Z,46.94
2022-09-22T11:05:06.230Z,46.06
2022-09-22T11:06:06.231Z,46.08
2022-09-22T11:07:06.204Z,46.58
2022-09-22T11:08:06.185Z,47.36
2022-09-22T11:09:06.196Z,47.36
2022-09-22T11:10:06.175Z,47.69
2022-09-22T11:11:06.172Z,47.58
2022-09-22T11:12:06.141Z,48.51
2022-09-22T11:13:06.148Z,48.51
2022-09-22T11:14:06.276Z,49.61
2022-09-22T11:15:06.119Z,49.63
2022-09-22T11:16:06.151Z,48.93
2022-09-22T11:17:06.088Z,48.93
2022-09-22T11:18:06.076Z,48.63
2022-09-22T11:19:06.091Z,49.16
2022-09-22T11:20:06.077Z,49.66
2022-09-22T11:21:06.054Z,50.16
2022-09-22T11:22:06.062Z,49.28
2022-09-22T11:23:06.028Z,49.08
2022-09-22T11:24:06.011Z,49.78
2022-09-22T11:25:06.015Z,50.29
2022-09-22T11:26:05.997Z,51.29
2022-09-22T11:27:05.986Z,50.96
2022-09-22T11:28:06.018Z,50.99
2022-09-22T11:29:05.980Z,51.19
2022-09-22T11:30:11.046Z,51.99
2022-09-22T11:31:07.004Z,51.99
2022-09-22T11:32:05.927Z,51.49
2022-09-22T11:33:05.917Z,51.09
2022-09-22T11:34:05.910Z,51.19
2022-09-22T11:35:05.904Z,49.86
2022-09-22T11:36:05.889Z,49.05
2022-09-22T11:37:05.897Z,49.08
2022-09-22T11:38:05.883Z,50.29
2022-09-22T11:39:05.856Z,48.86
2022-09-22T11:40:05.906Z,49.36
2022-09-22T11:41:05.836Z,50.06
2022-09-22T11:42:05.835Z,50.46
2022-09-22T11:43:05.810Z,51.09
2022-09-22T11:44:05.793Z,50.16
2022-09-22T11:45:05.784Z,49.66
2022-09-22T11:46:05.822Z,49.43
2022-09-22T11:47:05.773Z,49.13
2022-09-22T11:48:05.746Z,48.81
2022-09-22T11:49:05.751Z,48.63
2022-09-22T11:50:05.725Z,48.81
2022-09-22T11:51:05.716Z,48.61
2022-09-22T11:52:05.707Z,48.81
2022-09-22T11:53:05.709Z,48.49
2022-09-22T11:54:05.882Z,48.38
2022-09-22T11:55:05.680Z,48.01
2022-09-22T11:56:05.657Z,48.61
2022-09-22T11:57:05.655Z,48.73
2022-09-22T11:58:05.662Z,49.04
2022-09-22T11:59:05.643Z,48.03
2022-09-22T12:00:05.627Z,48.05
2022-09-22T12:01:09.572Z,48.55
2022-09-22T12:02:06.722Z,49.86
2022-09-22T12:03:05.788Z,50.26
2022-09-22T12:04:05.574Z,50.26
2022-09-22T12:05:05.594Z,49.98
2022-09-22T12:06:05.550Z,49.48
2022-09-22T12:07:05.538Z,50.29
2022-09-22T12:08:05.545Z,49.80
2022-09-22T12:09:05.543Z,51.01
2022-09-22T12:10:05.542Z,51.11
2022-09-22T12:11:05.499Z,51.24
2022-09-22T12:12:05.483Z,51.64
2022-09-22T12:13:05.480Z,52.47
2022-09-22T12:14:05.472Z,52.37
2022-09-22T12:15:05.457Z,52.97
2022-09-22T12:16:05.467Z,52.87
2022-09-22T12:17:05.442Z,52.97
2022-09-22T12:18:05.446Z,53.00
2022-09-22T12:19:05.552Z,53.40
2022-09-22T12:20:05.504Z,53.30
2022-09-22T12:21:05.415Z,53.90
2022-09-22T12:22:05.393Z,54.40
2022-09-22T12:23:05.370Z,54.63
2022-09-22T12:24:05.442Z,54.43
2022-09-22T12:25:05.356Z,54.35
2022-09-22T12:26:05.354Z,55.06
2022-09-22T12:27:05.342Z,54.96
2022-09-22T12:28:05.311Z,55.06
2022-09-22T12:29:05.294Z,55.26
2022-09-22T12:30:08.801Z,55.08
2022-09-22T12:31:06.489Z,55.79
2022-09-22T12:32:05.277Z,55.59
2022-09-22T12:33:05.263Z,55.59
2022-09-22T12:34:05.388Z,55.51
2022-09-22T12:35:05.235Z,55.62
2022-09-22T12:36:05.226Z,55.51
2022-09-22T12:37:05.232Z,55.62
2022-09-22T12:38:05.210Z,55.41
2022-09-22T12:39:05.206Z,55.71
2022-09-22T12:40:05.232Z,55.91
2022-09-22T12:41:05.208Z,55.14
2022-09-22T12:42:05.235Z,56.32
2022-09-22T12:43:05.168Z,55.41
2022-09-22T12:44:05.141Z,55.62
2022-09-22T12:45:05.121Z,55.62
2022-09-22T12:46:05.171Z,55.39
2022-09-22T12:47:05.132Z,54.91
2022-09-22T12:48:07.149Z,55.41
2022-09-22T12:49:05.272Z,55.71
2022-09-22T12:50:05.134Z,55.62
2022-09-22T12:51:05.067Z,56.42
2022-09-22T12:52:05.061Z,55.71
2022-09-22T12:53:05.078Z,55.31
2022-09-22T12:54:05.072Z,55.11